Pilot Station, AK (99650)

1:39 AM AKDT on August 27, 2014 (GMT -0800)
RAWS REINDEER RIVER AK US | Change Station
CLOSE
Current Station
Personal Weather Station
Location: Pilot Station, AK
Elevation: 179 ft
Nearby Weather Stations

Elev 179 ft 61.72 °N, 162.66 °W | Updated 42 minutes ago

Mostly Cloudy
Mostly Cloudy
49 °F
Feels Like 49 °F
N
3
Wind Variable Wind from SSW
Gusts 4.0 mph

Today
High -- | Low -- °F
--% Chance of Precip.
Yesterday
High -- | Low -- °F
Precip. -- in
7:30 AM 10:15 PM
Waxing Crescent, 3% visible
Pressure 29.54 in
Visibility 10.0 miles
Clouds Mostly Cloudy 3800 ft
Windchill 49 °F
Dew Point 48 °F
Humidity 95%
Rainfall 0.08 in
Snow Depth Not available.
UV 0 out of 12
Pollen Not available.
Air Quality Not available.
Flu Activity Not available.
METAR PAMO 270856Z AUTO 20003KT 10SM BKN038 11/10 A2988 RMK AO2 TSNO 58004 T01050100 SLP003 $

More Conditions Fewer Conditions

Pressure 29.54 in
Visibility 10.0 miles
Clouds Mostly Cloudy 3800 ft
Windchill 49 °F
Dew Point 48 °F
Humidity 95%
Rainfall 0.08 in
Snow Depth Not available.
UV 0 out of 12
Pollen Not available.
Air Quality Not available.
Flu Activity Not available.
METAR PAMO 270856Z AUTO 20003KT 10SM BKN038 11/10 A2988 RMK AO2 TSNO 58004 T01050100 SLP003 $

More Conditions Fewer Conditions

10-Day Weather Forecast

Almanac

Astronomy

Aug. 27, 2014 Rise Set
Actual Time 7:30 AM AKDT 10:15 PM AKDT
Civil Twilight 6:41 AM AKDT 11:05 PM AKDT
Nautical Twilight 5:32 AM AKDT 12:12 AM AKDT
Astronomical Twilight 3:29 AM AKDT 2:04 AM AKDT
Moon 10:28 AM AKDT 10:17 PM AKDT
Length of Visible Light 16h 24m
Length of Day
14h 44m
Tomorrow will be 5m 47s shorter.
Waxing Crescent, 3% of the Moon is Illuminated
Today
Waxing Crescent
Sep 2
First Quarter
Sep 8
Full
Sep 15
Last Quarter
Sep 24
New

Today's Extremes

State Highs State Lows

Community

WunderPhotos

Upload Photos

1,747,661 photos uploaded!

Nearby

Snow Depth

Station Depth Elevation
Rocky Point 3 in 500 ft
Mcneil Canyon 1 in 1320 ft
Port Graham 0 in 300 ft
Susitna Valley High 2 in 375 ft
Point Mackenzie 1 in 200 ft

Earthquake Activity

City Distance Mag. Time & Date
No recent earthquake activity has been reported nearby.
Minimum magnitude displayed is 2.5.

Coastal Water Temperatures

Place Temperature
No Stations Reporting

Nearby Weather Stations